createdAt,value
2022-12-03T00:00:49.625Z,29.83
2022-12-03T00:03:17.606Z,30.31
2022-12-03T00:05:48.776Z,29.92
2022-12-03T00:08:16.738Z,29.84
2022-12-03T00:10:43.693Z,29.19
2022-12-03T00:13:10.682Z,29.28
2022-12-03T00:15:37.579Z,29.96
2022-12-03T00:18:04.513Z,29.89
2022-12-03T00:20:31.381Z,30.25
2022-12-03T00:22:58.194Z,30.82
2022-12-03T00:25:25.223Z,31.69
2022-12-03T00:27:52.335Z,29.97
2022-12-03T00:30:19.332Z,31.14
2022-12-03T00:32:46.146Z,31.84
2022-12-03T00:35:12.975Z,31.45
2022-12-03T00:37:39.802Z,31.64
2022-12-03T00:40:07.510Z,31.35
2022-12-03T00:42:34.542Z,31.58
2022-12-03T00:45:01.585Z,32.81
2022-12-03T00:47:28.409Z,32.56
2022-12-03T00:49:55.420Z,32.23
2022-12-03T00:52:22.285Z,31.65
2022-12-03T00:54:49.399Z,32.05
2022-12-03T00:57:16.409Z,31.21
2022-12-03T00:59:43.405Z,31.68
2022-12-03T01:02:10.548Z,32.70
2022-12-03T01:04:37.523Z,31.51
2022-12-03T01:07:04.627Z,32.32
2022-12-03T01:09:31.678Z,33.92
2022-12-03T01:11:58.984Z,33.25
2022-12-03T01:14:25.820Z,33.70
2022-12-03T01:16:52.874Z,34.14
2022-12-03T01:19:19.868Z,33.63
2022-12-03T01:21:49.095Z,34.49
2022-12-03T01:24:19.118Z,33.20
2022-12-03T01:26:46.169Z,32.20
2022-12-03T01:29:13.968Z,34.21
2022-12-03T01:31:59.766Z,34.17
2022-12-03T01:34:26.846Z,34.13
2022-12-03T01:36:54.747Z,34.48
2022-12-03T01:39:21.734Z,34.36
2022-12-03T01:41:51.495Z,34.60
2022-12-03T01:44:24.680Z,34.25
2022-12-03T01:46:56.056Z,34.87
2022-12-03T01:49:38.643Z,35.15
2022-12-03T01:52:06.133Z,34.36
2022-12-03T01:54:39.998Z,35.18
2022-12-03T01:57:22.183Z,34.45
2022-12-03T01:59:50.522Z,34.62
2022-12-03T02:02:23.282Z,34.14
2022-12-03T02:04:52.998Z,34.51
2022-12-03T02:07:32.196Z,34.93
2022-12-03T02:10:01.739Z,35.57
2022-12-03T02:12:47.753Z,35.49
2022-12-03T02:15:15.211Z,35.67
2022-12-03T02:17:43.181Z,36.71
2022-12-03T02:20:11.927Z,37.49
2022-12-03T02:23:07.649Z,37.63
2022-12-03T02:25:36.600Z,35.64
2022-12-03T02:28:06.174Z,36.64
2022-12-03T02:30:34.460Z,36.79
2022-12-03T02:33:02.437Z,37.27
2022-12-03T02:35:34.215Z,36.86
2022-12-03T02:38:09.419Z,37.39
2022-12-03T02:40:37.139Z,37.79
2022-12-03T02:43:05.943Z,36.08
2022-12-03T02:45:42.516Z,36.49
2022-12-03T02:48:23.339Z,35.97
2022-12-03T02:50:57.341Z,37.97
2022-12-03T02:53:35.671Z,37.10
2022-12-03T02:56:04.283Z,38.49
2022-12-03T02:58:33.907Z,37.86
2022-12-03T03:01:04.211Z,37.33
2022-12-03T03:03:33.272Z,39.02
2022-12-03T03:06:03.328Z,38.69
2022-12-03T03:08:31.642Z,39.28
2022-12-03T03:11:01.897Z,39.77
2022-12-03T03:13:32.156Z,39.95
2022-12-03T03:15:59.328Z,38.41
2022-12-03T03:18:26.249Z,38.77
2022-12-03T03:20:53.561Z,40.00
2022-12-03T03:23:22.575Z,38.49
2022-12-03T03:25:57.376Z,39.20
2022-12-03T03:28:25.556Z,37.13
2022-12-03T03:30:53.199Z,38.66
2022-12-03T03:33:20.767Z,38.38
2022-12-03T03:35:49.132Z,38.27
2022-12-03T03:38:20.704Z,38.68
2022-12-03T03:40:50.966Z,38.08
2022-12-03T03:43:21.918Z,38.08
2022-12-03T03:45:52.143Z,38.14
2022-12-03T03:48:21.369Z,37.94
2022-12-03T03:50:50.736Z,36.92
2022-12-03T03:53:20.625Z,40.09
2022-12-03T03:55:47.815Z,39.05
2022-12-03T03:58:14.809Z,38.98
2022-12-03T04:00:46.069Z,38.33
2022-12-03T04:03:13.915Z,38.84
2022-12-03T04:05:41.019Z,36.91
2022-12-03T04:08:07.988Z,38.65
2022-12-03T04:10:53.594Z,38.40
2022-12-03T04:13:20.595Z,38.46
2022-12-03T04:15:47.638Z,38.93
2022-12-03T04:18:32.787Z,37.37
2022-12-03T04:21:18.486Z,38.51
2022-12-03T04:23:45.339Z,38.41
2022-12-03T04:26:30.692Z,39.12
2022-12-03T04:28:57.843Z,38.43
2022-12-03T04:31:43.276Z,38.30
2022-12-03T04:34:29.507Z,39.34
2022-12-03T04:36:56.341Z,38.39
2022-12-03T04:39:23.239Z,37.67
2022-12-03T04:41:50.068Z,37.76
2022-12-03T04:44:35.613Z,38.78
2022-12-03T04:47:32.291Z,38.42
2022-12-03T04:50:01.290Z,37.85
2022-12-03T04:52:28.110Z,38.51
2022-12-03T04:54:55.345Z,38.00
2022-12-03T04:57:22.483Z,37.53
2022-12-03T04:59:49.510Z,38.71
2022-12-03T05:02:16.965Z,38.30
2022-12-03T05:04:44.030Z,39.23
2022-12-03T05:07:10.858Z,39.58
2022-12-03T05:09:37.700Z,39.96
2022-12-03T05:12:04.906Z,38.69
2022-12-03T05:14:31.742Z,38.39
2022-12-03T05:16:58.695Z,37.56
2022-12-03T05:19:45.540Z,38.74
2022-12-03T05:22:12.566Z,37.12
2022-12-03T05:24:39.656Z,37.38
2022-12-03T05:27:06.497Z,36.75
2022-12-03T05:29:33.556Z,37.89
2022-12-03T05:32:00.391Z,37.03
2022-12-03T05:34:27.225Z,37.02
2022-12-03T05:36:54.068Z,38.04
2022-12-03T05:39:20.916Z,36.49
2022-12-03T05:42:06.002Z,36.53
2022-12-03T05:44:32.995Z,37.38
2022-12-03T05:46:59.992Z,36.87
2022-12-03T05:49:27.400Z,35.64
2022-12-03T05:51:58.413Z,37.17
2022-12-03T05:54:25.988Z,39.89
2022-12-03T05:56:52.816Z,41.63
2022-12-03T05:59:19.674Z,44.22
2022-12-03T06:01:46.579Z,42.31
2022-12-03T06:04:13.440Z,43.37
2022-12-03T06:06:40.453Z,45.38
2022-12-03T06:09:07.479Z,46.84
2022-12-03T06:11:35.049Z,48.64
2022-12-03T06:14:02.233Z,47.26
2022-12-03T06:16:29.317Z,46.78
2022-12-03T06:18:56.379Z,47.00
2022-12-03T06:21:23.250Z,50.43
2022-12-03T06:23:50.101Z,50.53
2022-12-03T06:26:17.087Z,49.38
2022-12-03T06:28:46.329Z,51.17
2022-12-03T06:31:13.712Z,50.08
2022-12-03T06:33:40.696Z,49.11
2022-12-03T06:36:07.924Z,49.90
2022-12-03T06:38:34.922Z,47.93
2022-12-03T06:41:01.757Z,44.76
2022-12-03T06:43:30.810Z,46.42
2022-12-03T06:45:57.854Z,45.05
2022-12-03T06:48:24.699Z,44.74
2022-12-03T06:50:51.588Z,41.29
2022-12-03T06:53:18.600Z,42.62
2022-12-03T06:55:45.606Z,41.40
2022-12-03T06:58:12.422Z,41.28
2022-12-03T07:00:39.458Z,43.11
2022-12-03T07:03:06.366Z,42.12
2022-12-03T07:05:33.251Z,42.62
2022-12-03T07:08:00.329Z,42.07
2022-12-03T07:10:27.296Z,41.18
2022-12-03T07:12:54.159Z,39.96
2022-12-03T07:15:21.182Z,42.26
2022-12-03T07:17:48.226Z,43.96
2022-12-03T07:20:16.198Z,42.79
2022-12-03T07:22:43.338Z,40.81
2022-12-03T07:25:12.331Z,41.29
2022-12-03T07:27:39.153Z,40.00
2022-12-03T07:30:07.982Z,37.50
2022-12-03T07:32:34.809Z,38.54
2022-12-03T07:35:02.800Z,37.05
2022-12-03T07:37:29.630Z,36.50
2022-12-03T07:39:56.630Z,37.87
2022-12-03T07:42:23.512Z,37.86
2022-12-03T07:44:50.702Z,38.85
2022-12-03T07:47:17.910Z,38.13
2022-12-03T07:49:44.737Z,38.93
2022-12-03T07:52:11.720Z,40.36
2022-12-03T07:54:38.561Z,37.83
2022-12-03T07:57:05.427Z,39.24
2022-12-03T07:59:32.412Z,38.48
2022-12-03T08:01:59.320Z,38.62
2022-12-03T08:04:26.377Z,38.00
2022-12-03T08:06:53.378Z,36.54
2022-12-03T08:09:20.624Z,36.36
2022-12-03T08:11:48.883Z,34.84
2022-12-03T08:14:19.101Z,35.70
2022-12-03T08:16:47.805Z,34.19
2022-12-03T08:19:17.997Z,35.03
2022-12-03T08:21:45.296Z,35.44
2022-12-03T08:24:20.607Z,34.40
2022-12-03T08:26:49.491Z,34.10
2022-12-03T08:29:19.041Z,34.60
2022-12-03T08:31:49.850Z,35.24
2022-12-03T08:34:17.536Z,34.65
2022-12-03T08:36:45.747Z,37.86
2022-12-03T08:39:29.650Z,37.09
2022-12-03T08:42:34.760Z,37.95
2022-12-03T08:45:29.337Z,40.84
2022-12-03T08:47:57.848Z,36.10
2022-12-03T08:50:35.853Z,35.72
2022-12-03T08:53:25.544Z,35.91
2022-12-03T08:55:57.066Z,34.72
2022-12-03T08:58:36.421Z,35.15
2022-12-03T09:01:17.898Z,33.02
2022-12-03T09:03:52.109Z,35.21
2022-12-03T09:06:19.044Z,34.59
2022-12-03T09:08:46.165Z,34.64
2022-12-03T09:11:14.266Z,33.24
2022-12-03T09:13:41.082Z,35.07
2022-12-03T09:16:08.141Z,33.97
2022-12-03T09:18:35.007Z,33.12
2022-12-03T09:21:02.004Z,34.67
2022-12-03T09:23:28.839Z,33.20
2022-12-03T09:25:55.650Z,32.86
2022-12-03T09:28:22.553Z,35.50
2022-12-03T09:30:49.559Z,35.41
2022-12-03T09:33:16.647Z,35.05
2022-12-03T09:35:43.512Z,34.47
2022-12-03T09:38:10.955Z,39.16
2022-12-03T09:40:37.831Z,36.95
2022-12-03T09:43:05.163Z,35.91
2022-12-03T09:45:32.263Z,34.89
2022-12-03T09:48:03.703Z,36.31
2022-12-03T09:50:31.840Z,35.37
2022-12-03T09:53:03.704Z,36.00
2022-12-03T09:55:31.071Z,37.74
2022-12-03T09:57:58.520Z,35.67
2022-12-03T10:00:29.542Z,34.78
2022-12-03T10:03:04.364Z,37.53
2022-12-03T10:05:31.342Z,36.74
2022-12-03T10:08:06.365Z,38.52
2022-12-03T10:10:36.393Z,36.46
2022-12-03T10:13:05.478Z,36.76
2022-12-03T10:15:32.841Z,37.95
2022-12-03T10:18:16.510Z,38.34
2022-12-03T10:20:43.595Z,36.57
2022-12-03T10:23:23.381Z,36.57
2022-12-03T10:25:59.551Z,41.15
2022-12-03T10:28:33.597Z,38.83
2022-12-03T10:31:03.788Z,36.69
2022-12-03T10:33:43.065Z,39.54
2022-12-03T10:36:19.089Z,42.32
2022-12-03T10:38:46.318Z,43.00
2022-12-03T10:41:28.828Z,42.58
2022-12-03T10:44:14.311Z,42.79
2022-12-03T10:46:41.563Z,42.60
2022-12-03T10:49:18.505Z,41.96
2022-12-03T10:51:47.504Z,41.40
2022-12-03T10:54:19.500Z,41.84
2022-12-03T10:56:48.391Z,43.89
2022-12-03T10:59:20.630Z,42.56
2022-12-03T11:01:48.228Z,44.29
2022-12-03T11:04:33.738Z,44.20
2022-12-03T11:07:03.185Z,45.47
2022-12-03T11:09:33.224Z,45.93
2022-12-03T11:12:17.290Z,45.57
2022-12-03T11:14:54.350Z,45.44
2022-12-03T11:17:45.634Z,46.44
2022-12-03T11:20:32.328Z,47.79
2022-12-03T11:23:00.086Z,47.37
2022-12-03T11:25:26.915Z,45.30
2022-12-03T11:28:11.820Z,47.53
2022-12-03T11:30:51.559Z,46.14
2022-12-03T11:33:30.832Z,44.82
2022-12-03T11:36:03.529Z,45.75
2022-12-03T11:38:52.994Z,45.97
2022-12-03T11:41:24.979Z,46.04
2022-12-03T11:43:51.755Z,45.48
2022-12-03T11:46:30.902Z,46.95
2022-12-03T11:48:59.941Z,45.81
2022-12-03T11:51:30.333Z,54.87
2022-12-03T11:54:00.075Z,55.83
2022-12-03T11:56:29.635Z,48.90
2022-12-03T11:59:03.580Z,49.30
2022-12-03T12:01:38.863Z,49.67
2022-12-03T12:04:25.633Z,49.91
2022-12-03T12:06:53.552Z,50.34
2022-12-03T12:09:53.788Z,55.83
2022-12-03T12:12:29.699Z,51.93
2022-12-03T12:15:00.483Z,47.97
2022-12-03T12:17:45.433Z,48.55
2022-12-03T12:20:27.683Z,48.83
2022-12-03T12:22:55.382Z,46.15
2022-12-03T12:25:38.437Z,46.93
2022-12-03T12:28:05.287Z,46.18
2022-12-03T12:30:32.369Z,48.44
2022-12-03T12:33:07.927Z,46.08
2022-12-03T12:35:34.785Z,48.05
2022-12-03T12:38:08.516Z,46.32
2022-12-03T12:40:38.331Z,48.90
2022-12-03T12:43:14.418Z,46.06
2022-12-03T12:45:43.651Z,46.69
2022-12-03T12:48:16.269Z,47.21
2022-12-03T12:50:48.379Z,46.28
2022-12-03T12:53:29.164Z,46.98
2022-12-03T12:56:02.449Z,47.36
2022-12-03T12:58:33.076Z,48.23
2022-12-03T13:01:05.624Z,45.98
2022-12-03T13:03:39.304Z,44.91
2022-12-03T13:06:07.219Z,47.05
2022-12-03T13:08:42.460Z,46.93
2022-12-03T13:11:42.000Z,46.43
2022-12-03T13:14:17.448Z,50.52
2022-12-03T13:16:46.339Z,46.43
2022-12-03T13:19:33.064Z,47.07
2022-12-03T13:22:14.797Z,46.62
2022-12-03T13:24:47.905Z,45.49
2022-12-03T13:27:17.717Z,45.51
2022-12-03T13:29:48.584Z,46.02
2022-12-03T13:32:20.199Z,46.09
2022-12-03T13:34:50.303Z,47.84
2022-12-03T13:37:25.064Z,47.16
2022-12-03T13:39:58.103Z,47.62
2022-12-03T13:42:40.515Z,51.25
2022-12-03T13:45:16.208Z,51.74
2022-12-03T13:48:21.531Z,47.58
2022-12-03T13:50:49.553Z,46.87
2022-12-03T13:53:35.540Z,49.51
2022-12-03T13:56:33.703Z,47.31
2022-12-03T13:59:01.669Z,47.09
2022-12-03T14:01:29.076Z,48.57
2022-12-03T14:03:56.909Z,50.07
2022-12-03T14:06:23.990Z,54.18
2022-12-03T14:08:51.386Z,50.67
2022-12-03T14:11:37.661Z,49.94
2022-12-03T14:14:04.759Z,53.37
2022-12-03T14:16:31.911Z,53.37
2022-12-03T14:18:59.012Z,50.12
2022-12-03T14:21:26.099Z,49.45
2022-12-03T14:23:53.116Z,48.37
2022-12-03T14:26:19.957Z,61.03
2022-12-03T14:28:46.834Z,51.05
2022-12-03T14:31:13.776Z,50.03
2022-12-03T14:33:40.800Z,53.08
2022-12-03T14:36:08.086Z,48.62
2022-12-03T14:38:34.935Z,49.35
2022-12-03T14:41:01.855Z,48.91
2022-12-03T14:43:28.899Z,53.07
2022-12-03T14:45:55.762Z,51.97
2022-12-03T14:48:22.832Z,52.54
2022-12-03T14:50:49.680Z,51.77
2022-12-03T14:53:16.702Z,48.86
2022-12-03T14:55:45.480Z,48.99
2022-12-03T14:58:12.746Z,49.13
2022-12-03T15:00:39.679Z,51.58
2022-12-03T15:03:16.685Z,52.03
2022-12-03T15:05:43.817Z,52.99
2022-12-03T15:08:10.725Z,48.36
2022-12-03T15:10:37.599Z,48.40
2022-12-03T15:13:04.445Z,50.18
2022-12-03T15:15:31.274Z,49.63
2022-12-03T15:17:58.293Z,48.81
2022-12-03T15:20:25.425Z,49.33
2022-12-03T15:22:52.438Z,49.04
2022-12-03T15:25:24.308Z,48.19
2022-12-03T15:27:51.649Z,48.42
2022-12-03T15:30:20.531Z,48.22
2022-12-03T15:32:47.589Z,49.15
2022-12-03T15:35:18.284Z,50.79
2022-12-03T15:37:45.576Z,48.04
2022-12-03T15:40:13.469Z,48.79
2022-12-03T15:42:40.488Z,51.83
2022-12-03T15:45:13.482Z,51.51
2022-12-03T15:47:41.902Z,47.97
2022-12-03T15:50:09.281Z,47.32
2022-12-03T15:52:36.440Z,46.50
2022-12-03T15:55:03.910Z,47.65
2022-12-03T15:57:31.198Z,46.52
2022-12-03T15:59:58.036Z,48.84
2022-12-03T16:02:25.121Z,45.62
2022-12-03T16:04:52.008Z,46.26
2022-12-03T16:07:18.904Z,47.61
2022-12-03T16:09:46.065Z,47.82
2022-12-03T16:12:12.924Z,46.69
2022-12-03T16:14:39.786Z,47.69
2022-12-03T16:17:06.642Z,48.00
2022-12-03T16:19:33.542Z,47.97
2022-12-03T16:22:00.740Z,47.73
2022-12-03T16:24:30.007Z,48.14
2022-12-03T16:26:58.658Z,46.88
2022-12-03T16:29:25.672Z,45.72
2022-12-03T16:31:52.709Z,45.13
2022-12-03T16:34:20.027Z,45.78
2022-12-03T16:36:47.616Z,46.63
2022-12-03T16:39:14.716Z,48.70
2022-12-03T16:41:42.292Z,45.93
2022-12-03T16:44:19.811Z,47.27
2022-12-03T16:46:46.937Z,45.87
2022-12-03T16:49:13.891Z,46.35
2022-12-03T16:51:40.725Z,50.37
2022-12-03T16:54:07.728Z,49.70
2022-12-03T16:56:44.902Z,46.81
2022-12-03T16:59:11.938Z,46.89
2022-12-03T17:01:38.823Z,47.17
2022-12-03T17:04:05.718Z,48.83
2022-12-03T17:06:32.860Z,45.73
2022-12-03T17:08:59.851Z,48.59
2022-12-03T17:11:26.684Z,50.79
2022-12-03T17:13:53.637Z,54.32
2022-12-03T17:16:20.621Z,48.91
2022-12-03T17:18:49.405Z,48.63
2022-12-03T17:21:16.423Z,49.41
2022-12-03T17:23:44.658Z,47.47
2022-12-03T17:26:14.275Z,48.22
2022-12-03T17:28:41.274Z,50.69
2022-12-03T17:31:08.776Z,58.63
2022-12-03T17:33:36.107Z,46.35
2022-12-03T17:36:03.958Z,46.23
2022-12-03T17:38:39.098Z,48.58
2022-12-03T17:41:07.422Z,48.84
2022-12-03T17:43:34.629Z,49.26
2022-12-03T17:46:01.536Z,48.70
2022-12-03T17:48:31.273Z,50.67
2022-12-03T17:50:58.782Z,47.48
2022-12-03T17:53:25.819Z,47.13
2022-12-03T17:55:54.045Z,47.80
2022-12-03T17:58:24.148Z,46.04
2022-12-03T18:00:58.611Z,46.19
2022-12-03T18:03:28.926Z,48.30
2022-12-03T18:05:55.788Z,44.56
2022-12-03T18:08:22.888Z,44.52
2022-12-03T18:10:50.137Z,46.40
2022-12-03T18:13:17.626Z,47.16
2022-12-03T18:15:45.180Z,46.45
2022-12-03T18:18:12.039Z,46.17
2022-12-03T18:20:39.019Z,45.08
2022-12-03T18:23:05.875Z,42.83
2022-12-03T18:25:33.106Z,44.43
2022-12-03T18:28:00.125Z,46.85
2022-12-03T18:30:27.098Z,45.71
2022-12-03T18:32:54.385Z,45.88
2022-12-03T18:35:21.414Z,46.45
2022-12-03T18:37:51.029Z,46.02
2022-12-03T18:40:22.490Z,46.35
2022-12-03T18:42:49.376Z,47.85
2022-12-03T18:45:16.960Z,48.81
2022-12-03T18:47:44.483Z,48.60
2022-12-03T18:50:12.260Z,46.97
2022-12-03T18:52:39.554Z,44.19
2022-12-03T18:55:07.231Z,44.08
2022-12-03T18:57:34.280Z,44.84
2022-12-03T19:00:01.294Z,45.71
2022-12-03T19:05:15.166Z,43.30
2022-12-03T19:07:43.369Z,45.79
2022-12-03T19:10:11.419Z,45.54
2022-12-03T19:12:39.015Z,45.07
2022-12-03T19:15:06.614Z,45.59
2022-12-03T19:17:33.627Z,47.98
2022-12-03T19:20:00.535Z,45.73
2022-12-03T19:22:27.541Z,46.92
2022-12-03T19:24:54.543Z,52.02
2022-12-03T19:27:21.345Z,52.32
2022-12-03T19:29:48.897Z,51.44
2022-12-03T19:32:15.911Z,48.62
2022-12-03T19:34:42.776Z,47.90
2022-12-03T19:37:09.814Z,49.01
2022-12-03T19:39:36.671Z,54.21
2022-12-03T19:42:03.741Z,50.77
2022-12-03T19:44:30.616Z,49.11
2022-12-03T19:46:57.657Z,51.61
2022-12-03T19:49:24.562Z,59.36
2022-12-03T19:51:51.564Z,52.53
2022-12-03T19:54:18.531Z,52.47
2022-12-03T19:56:46.196Z,53.77
2022-12-03T19:59:13.931Z,51.86
2022-12-03T20:01:42.917Z,51.20
2022-12-03T20:04:11.498Z,52.75
2022-12-03T20:06:39.646Z,52.01
2022-12-03T20:09:11.279Z,52.41
2022-12-03T20:11:40.271Z,49.55
2022-12-03T20:14:10.953Z,50.14
2022-12-03T20:16:37.856Z,50.13
2022-12-03T20:19:07.484Z,50.45
2022-12-03T20:21:37.224Z,52.75
2022-12-03T20:24:05.513Z,54.05
2022-12-03T20:26:32.995Z,51.35
2022-12-03T20:29:00.392Z,51.80
2022-12-03T20:31:30.654Z,53.73
2022-12-03T20:34:00.963Z,53.28
2022-12-03T20:36:29.893Z,53.31
2022-12-03T20:38:59.324Z,54.97
2022-12-03T20:41:26.687Z,53.05
2022-12-03T20:43:54.299Z,52.50
2022-12-03T20:46:27.727Z,55.17
2022-12-03T20:48:55.371Z,55.19
2022-12-03T20:51:25.597Z,54.29
2022-12-03T20:53:52.643Z,54.60
2022-12-03T20:56:23.350Z,54.70
2022-12-03T20:58:50.456Z,54.97
2022-12-03T21:01:26.578Z,55.61
2022-12-03T21:03:57.860Z,53.70
2022-12-03T21:06:27.963Z,54.59
2022-12-03T21:08:56.093Z,51.75
2022-12-03T21:11:26.034Z,54.29
2022-12-03T21:13:54.425Z,56.92
2022-12-03T21:16:39.794Z,56.90
2022-12-03T21:19:11.788Z,54.64
2022-12-03T21:21:38.796Z,54.23
2022-12-03T21:24:05.812Z,55.31
2022-12-03T21:26:32.696Z,54.52
2022-12-03T21:28:59.610Z,53.79
2022-12-03T21:31:26.986Z,54.70
2022-12-03T21:33:55.314Z,55.35
2022-12-03T21:36:23.863Z,57.07
2022-12-03T21:38:51.696Z,54.46
2022-12-03T21:41:18.549Z,56.73
2022-12-03T21:43:45.370Z,54.58
2022-12-03T21:47:11.575Z,56.05
2022-12-03T21:49:01.901Z,56.26
2022-12-03T21:51:28.982Z,54.48
2022-12-03T21:53:55.955Z,55.17
2022-12-03T21:56:22.971Z,55.37
2022-12-03T21:58:49.986Z,54.53
2022-12-03T22:01:21.169Z,54.79
2022-12-03T22:03:48.941Z,55.02
2022-12-03T22:06:17.152Z,55.60
2022-12-03T22:08:45.200Z,54.12
2022-12-03T22:11:17.101Z,56.37
2022-12-03T22:13:45.729Z,55.72
2022-12-03T22:16:17.156Z,56.00
2022-12-03T22:18:44.391Z,55.49
2022-12-03T22:21:14.345Z,56.28
2022-12-03T22:23:41.594Z,55.87
2022-12-03T22:26:12.652Z,58.06
2022-12-03T22:28:43.654Z,57.41
2022-12-03T22:31:11.387Z,58.48
2022-12-03T22:33:39.590Z,55.63
2022-12-03T22:36:17.972Z,54.19
2022-12-03T22:38:47.243Z,57.92
2022-12-03T22:41:14.708Z,58.58
2022-12-03T22:43:41.805Z,57.56
2022-12-03T22:46:12.178Z,58.95
2022-12-03T22:48:40.337Z,57.21
2022-12-03T22:51:14.943Z,59.55
2022-12-03T22:53:42.165Z,59.18
2022-12-03T22:56:09.371Z,60.70
2022-12-03T22:58:38.585Z,59.89
2022-12-03T23:01:06.691Z,60.14
2022-12-03T23:03:33.965Z,57.44
2022-12-03T23:06:00.869Z,56.46
2022-12-03T23:08:27.921Z,56.87
2022-12-03T23:10:54.923Z,60.69
2022-12-03T23:13:21.863Z,56.77
2022-12-03T23:15:52.044Z,57.98
2022-12-03T23:18:20.335Z,59.51
2022-12-03T23:20:50.425Z,57.23
2022-12-03T23:23:19.136Z,59.21
2022-12-03T23:25:58.271Z,56.71
2022-12-03T23:28:25.499Z,56.10
2022-12-03T23:30:52.581Z,58.69
2022-12-03T23:33:19.991Z,57.54
2022-12-03T23:35:47.041Z,57.21
2022-12-03T23:38:14.054Z,56.68
2022-12-03T23:40:47.708Z,58.70
2022-12-03T23:43:15.423Z,57.12
2022-12-03T23:45:42.488Z,57.54
2022-12-03T23:48:09.409Z,58.12
2022-12-03T23:50:39.252Z,57.23
2022-12-03T23:53:06.101Z,59.01
2022-12-03T23:55:33.597Z,60.44
2022-12-03T23:58:00.616Z,57.22
